Time;durP1;ratioP1;P1;durP2;ratioP2;P2;SDS_P1;SDS_P2;PMS_P1;PMS_P2;Temp;Humidity;BMP_temperature;BMP_pressure;BME280_temperature;BME280_humidity;BME280_pressure;Samples;Min_cycle;Max_cycle;Signal;HPM_P1;HPM_P2
2023/04/13 15:04:11;;;;;;;2.28;0.50;;;24.40;63.30;;;;;;5182467;22;20360;-74
2023/04/13 15:06:53;;;;;;;0.52;0.47;;;24.30;63.40;;;;;;5222817;22;20042;-76
2023/04/13 15:09:18;;;;;;;1.80;0.45;;;24.30;63.40;;;;;;5224266;22;20429;-73
2023/04/13 15:11:47;;;;;;;1.42;0.50;;;24.30;63.50;;;;;;5223769;22;20015;-77
2023/04/13 15:14:11;;;;;;;2.15;0.70;;;24.30;63.50;;;;;;5215801;22;20011;-74
2023/04/13 15:16:37;;;;;;;4.43;0.60;;;24.20;63.50;;;;;;5220685;22;20015;-77
2023/04/13 15:18:59;;;;;;;1.15;0.43;;;24.20;63.80;;;;;;5224526;22;20038;-76
2023/04/13 15:21:27;;;;;;;1.08;0.50;;;24.20;63.80;;;;;;5224731;22;20525;-74
2023/04/13 15:23:49;;;;;;;2.05;0.68;;;24.20;63.80;;;;;;5222190;22;20432;-74
2023/04/13 15:26:24;;;;;;;1.38;0.80;;;24.20;63.80;;;;;;5223827;22;20025;-72
2023/04/13 15:28:56;;;;;;;1.27;0.52;;;24.20;63.90;;;;;;5215813;22;20057;-74
2023/04/13 15:31:20;;;;;;;1.30;0.47;;;24.20;63.90;;;;;;5220893;22;20057;-73
2023/04/13 15:33:46;;;;;;;1.42;0.63;;;24.20;63.80;;;;;;5190372;22;20039;-73
2023/04/13 15:36:32;;;;;;;1.25;0.45;;;24.10;63.80;;;;;;5190796;22;20015;-75
2023/04/13 15:38:58;;;;;;;1.02;0.50;;;24.20;63.90;;;;;;5220233;22;20015;-71
2023/04/13 15:41:24;;;;;;;1.58;0.57;;;24.10;63.80;;;;;;5223226;22;20594;-73
2023/04/13 15:43:46;;;;;;;8.27;1.05;;;24.10;63.80;;;;;;5223804;22;20011;-75
2023/04/13 15:46:31;;;;;;;5.78;0.98;;;24.10;63.90;;;;;;5224065;22;20046;-72
2023/04/13 15:48:58;;;;;;;3.03;0.70;;;24.10;63.80;;;;;;5222663;22;20015;-75
2023/04/13 15:51:23;;;;;;;1.40;0.50;;;24.00;63.80;;;;;;5224973;22;20019;-74
2023/04/13 15:53:46;;;;;;;0.98;0.43;;;24.00;63.80;;;;;;5192097;22;20015;-74
2023/04/13 15:56:09;;;;;;;1.40;0.50;;;24.00;63.70;;;;;;5222158;22;20015;-74
2023/04/13 15:58:31;;;;;;;2.08;0.60;;;24.00;63.80;;;;;;5224025;22;20110;-73
2023/04/13 16:01:04;;;;;;;3.83;0.95;;;24.00;63.90;;;;;;5191973;22;20049;-74
2023/04/13 16:03:26;;;;;;;4.00;0.80;;;24.00;63.90;;;;;;5222278;22;20014;-74
2023/04/13 16:05:49;;;;;;;5.10;1.10;;;23.90;63.80;;;;;;5223122;22;20039;-74
2023/04/13 16:08:12;;;;;;;1.88;0.80;;;23.90;63.90;;;;;;5224679;22;20055;-73
2023/04/13 16:10:35;;;;;;;1.85;0.50;;;23.90;64.00;;;;;;5221849;22;20023;-75
2023/04/13 16:12:57;;;;;;;;;;;23.90;64.20;;;;;;5214355;22;20402;-73
2023/04/13 16:15:21;;;;;;;2.05;0.68;;;23.80;64.20;;;;;;5215338;22;19903;-74
2023/04/13 16:17:44;;;;;;;1.60;0.60;;;23.80;64.20;;;;;;5223534;22;20015;-75
2023/04/13 16:22:35;;;;;;;0.95;0.50;;;23.80;64.40;;;;;;5223650;22;20072;-73
2023/04/13 16:24:59;;;;;;;1.20;0.43;;;23.80;64.50;;;;;;5224093;22;20014;-73
2023/04/13 16:27:21;;;;;;;1.87;0.50;;;23.80;64.40;;;;;;5213676;22;20016;-73
2023/04/13 16:29:44;;;;;;;0.77;0.60;;;23.80;64.40;;;;;;5224684;22;20019;-73
2023/04/13 16:32:07;;;;;;;1.23;0.40;;;23.80;64.40;;;;;;5220986;22;20350;-74
2023/04/13 16:34:32;;;;;;;1.88;0.55;;;23.70;64.30;;;;;;5220434;22;20015;-68
2023/04/13 16:37:05;;;;;;;2.03;0.60;;;23.70;64.60;;;;;;5210774;22;20381;-68
2023/04/13 16:39:27;;;;;;;2.67;0.88;;;23.70;65.00;;;;;;5222406;22;20064;-68
2023/04/13 16:41:49;;;;;;;1.08;0.50;;;23.70;64.60;;;;;;5190762;22;20619;-68
2023/04/13 16:44:12;;;;;;;1.23;0.50;;;23.70;64.60;;;;;;5192764;22;20438;-67
2023/04/13 16:46:34;;;;;;;1.15;0.52;;;23.70;64.50;;;;;;5223875;22;20007;-67
2023/04/13 16:48:56;;;;;;;1.17;0.38;;;23.70;64.40;;;;;;5224346;22;20320;-69
2023/04/13 16:51:19;;;;;;;2.10;0.50;;;23.70;64.40;;;;;;5191370;22;20035;-72
2023/04/13 16:53:43;;;;;;;1.13;0.57;;;23.60;64.30;;;;;;5225207;22;20019;-73
2023/04/13 16:56:05;;;;;;;0.82;0.30;;;23.70;64.30;;;;;;5224625;22;20019;-72
2023/04/13 16:58:27;;;;;;;1.17;0.50;;;23.60;64.20;;;;;;5223963;22;20015;-72
2023/04/13 17:00:51;;;;;;;0.73;0.30;;;23.60;64.20;;;;;;5193502;22;20066;-72
2023/04/13 17:03:13;;;;;;;0.47;0.43;;;23.60;64.10;;;;;;5223328;22;20454;-72
2023/04/13 17:05:36;;;;;;;3.15;0.40;;;23.60;64.10;;;;;;5196927;22;20078;-71
2023/04/13 17:07:58;;;;;;;3.10;0.40;;;23.60;64.10;;;;;;5195983;22;20046;-72
2023/04/13 17:10:21;;;;;;;2.42;0.40;;;23.60;64.40;;;;;;5155681;22;20024;-72
2023/04/13 17:12:45;;;;;;;1.13;0.35;;;23.60;64.30;;;;;;5194379;22;20012;-71
2023/04/13 17:15:08;;;;;;;1.83;0.47;;;23.60;64.30;;;;;;5195630;22;20015;-72
2023/04/13 17:17:31;;;;;;;0.45;0.38;;;23.60;64.20;;;;;;5197063;22;20014;-73
2023/04/13 17:19:54;;;;;;;1.98;0.40;;;23.50;64.10;;;;;;5195759;22;20065;-72
2023/04/13 17:22:16;;;;;;;0.85;0.40;;;23.50;64.20;;;;;;5194636;22;20011;-72
2023/04/13 17:24:39;;;;;;;0.88;0.60;;;23.50;64.10;;;;;;5194946;22;20561;-73
2023/04/13 17:27:01;;;;;;;1.20;0.50;;;23.50;64.10;;;;;;5195142;22;20409;-73
2023/04/13 17:29:24;;;;;;;0.55;0.30;;;23.50;64.10;;;;;;5194470;22;20480;-72
2023/04/13 17:31:47;;;;;;;1.52;0.55;;;23.50;64.10;;;;;;5195882;22;20447;-72
2023/04/13 17:34:10;;;;;;;0.93;0.33;;;23.50;64.00;;;;;;5195609;22;20012;-73
2023/04/13 17:36:32;;;;;;;0.88;0.50;;;23.50;64.10;;;;;;5199429;22;20631;-67
2023/04/13 17:38:55;;;;;;;0.52;0.30;;;23.50;64.10;;;;;;5196575;22;20015;-67
2023/04/13 17:41:17;;;;;;;1.40;0.50;;;23.40;64.00;;;;;;5197436;22;20008;-68
2023/04/13 17:43:40;;;;;;;0.90;0.47;;;23.40;64.10;;;;;;5200767;22;20020;-68
2023/04/13 17:46:02;;;;;;;1.25;0.40;;;23.40;64.20;;;;;;5200524;22;20011;-68
2023/04/13 17:48:27;;;;;;;0.63;0.40;;;23.40;64.10;;;;;;5196047;22;20047;-68
2023/04/13 17:50:50;;;;;;;1.25;0.35;;;23.40;64.40;;;;;;5169729;22;20717;-73
2023/04/13 17:53:13;;;;;;;1.85;0.52;;;23.40;64.30;;;;;;5198225;22;20435;-73
2023/04/13 17:55:38;;;;;;;1.52;0.65;;;23.40;64.30;;;;;;5198671;22;20011;-73
2023/04/13 17:58:01;;;;;;;1.65;0.40;;;23.40;64.30;;;;;;5199163;22;20442;-73
2023/04/13 18:00:25;;;;;;;0.47;0.25;;;23.30;64.30;;;;;;5200936;22;20016;-73
2023/04/13 18:02:49;;;;;;;1.65;0.60;;;23.30;64.30;;;;;;5193181;22;20090;-72
2023/04/13 18:05:14;;;;;;;0.82;0.40;;;23.30;64.40;;;;;;5226637;22;20023;-71
2023/04/13 18:07:36;;;;;;;1.50;0.50;;;23.30;64.30;;;;;;5235479;22;20019;-72
2023/04/13 18:09:58;;;;;;;4.55;0.70;;;23.30;64.30;;;;;;5247815;22;20026;-72
2023/04/13 18:12:21;;;;;;;1.90;0.60;;;23.30;64.30;;;;;;5249825;22;20015;-72
2023/04/13 18:14:43;;;;;;;1.02;0.50;;;23.30;64.30;;;;;;5234402;22;20069;-72
2023/04/13 18:17:06;;;;;;;0.40;0.32;;;23.20;64.30;;;;;;5229760;22;20094;-73
2023/04/13 18:19:31;;;;;;;1.33;0.40;;;23.20;64.30;;;;;;5226752;22;20015;-72
2023/04/13 18:21:53;;;;;;;2.53;0.47;;;23.20;64.20;;;;;;5226750;22;20659;-73
2023/04/13 18:24:15;;;;;;;0.90;0.28;;;23.20;64.20;;;;;;5226380;22;20015;-73
2023/04/13 18:26:39;;;;;;;0.57;0.30;;;23.20;64.30;;;;;;5194599;22;20035;-73
2023/04/13 18:29:01;;;;;;;1.63;0.73;;;23.20;64.20;;;;;;5225393;22;20025;-73
2023/04/13 18:31:24;;;;;;;0.70;0.47;;;23.20;64.20;;;;;;5222718;22;20015;-73
2023/04/13 18:33:52;;;;;;;0.85;0.55;;;23.20;64.10;;;;;;5224189;22;20057;-69
2023/04/13 18:36:16;;;;;;;0.85;0.45;;;23.10;64.20;;;;;;5189803;22;20316;-68
2023/04/13 18:38:38;;;;;;;;;;;23.10;64.10;;;;;;5224722;22;20113;-67
2023/04/13 18:41:00;;;;;;;1.30;0.40;;;23.10;64.10;;;;;;5191934;22;20001;-68
2023/04/13 18:43:24;;;;;;;1.33;0.50;;;23.00;64.20;;;;;;5192015;22;20016;-69
2023/04/13 18:45:46;;;;;;;0.45;0.40;;;23.10;64.20;;;;;;5221539;22;20509;-69
2023/04/13 18:48:09;;;;;;;1.58;0.50;;;23.00;64.20;;;;;;5225311;22;20555;-69
2023/04/13 18:50:31;;;;;;;1.60;0.60;;;23.00;64.30;;;;;;5224923;22;20023;-68
2023/04/13 18:52:54;;;;;;;0.75;0.40;;;23.00;64.20;;;;;;5224927;22;20014;-69
2023/04/13 18:55:17;;;;;;;1.35;0.57;;;23.00;64.30;;;;;;5166359;22;20493;-68
2023/04/13 18:57:40;;;;;;;0.88;0.35;;;23.00;64.30;;;;;;5184290;22;20032;-67
2023/04/13 19:00:03;;;;;;;0.85;0.52;;;22.90;64.30;;;;;;5225679;22;20015;-67
2023/04/13 19:02:25;;;;;;;1.15;0.50;;;22.90;64.30;;;;;;5192843;22;20015;-73
2023/04/13 19:04:48;;;;;;;0.63;0.40;;;22.90;64.40;;;;;;5224959;22;20027;-72
2023/04/13 19:07:10;;;;;;;1.83;0.57;;;22.90;64.30;;;;;;5224970;22;20008;-73
2023/04/13 19:09:33;;;;;;;0.82;0.40;;;22.90;64.50;;;;;;5221564;22;20026;-72
2023/04/13 19:11:59;;;;;;;0.95;0.40;;;22.90;64.40;;;;;;5224910;22;20022;-72
2023/04/13 19:14:22;;;;;;;3.20;0.60;;;22.80;64.40;;;;;;5223751;22;20025;-73
2023/04/13 19:16:51;;;;;;;3.53;0.55;;;22.80;64.50;;;;;;5225373;22;20015;-70
2023/04/13 19:19:14;;;;;;;2.08;0.70;;;22.80;64.60;;;;;;5224050;22;20092;-70
2023/04/13 19:21:36;;;;;;;1.42;0.70;;;22.80;64.80;;;;;;5181966;22;20016;-69
2023/04/13 19:24:11;;;;;;;1.83;0.47;;;22.80;64.60;;;;;;5192144;22;20020;-69
2023/04/13 19:26:34;;;;;;;1.52;0.80;;;22.80;64.70;;;;;;5191932;22;20015;-69
2023/04/13 19:28:56;;;;;;;2.40;0.50;;;22.80;64.80;;;;;;5224794;22;20015;-69
2023/04/13 19:31:19;;;;;;;1.27;0.63;;;22.70;64.80;;;;;;5220740;22;20408;-69
2023/04/13 19:33:41;;;;;;;0.60;0.50;;;22.70;65.10;;;;;;5192467;22;20606;-68
2023/04/13 19:36:05;;;;;;;1.23;0.40;;;22.70;64.70;;;;;;5224508;22;20034;-68
2023/04/13 19:38:27;;;;;;;;;;;22.70;64.70;;;;;;5224332;22;20011;-69
2023/04/13 19:40:49;;;;;;;0.82;0.30;;;22.70;64.70;;;;;;5223326;22;19926;-68
2023/04/13 19:43:11;;;;;;;0.65;0.30;;;22.70;64.60;;;;;;5192192;22;20020;-68
2023/04/13 19:45:34;;;;;;;1.33;0.50;;;22.70;64.70;;;;;;5224670;22;20037;-68
2023/04/13 19:47:57;;;;;;;2.22;0.65;;;22.60;64.70;;;;;;5224303;22;20019;-69
2023/04/13 19:50:19;;;;;;;3.60;0.90;;;22.60;64.70;;;;;;5192846;22;20020;-69
2023/04/13 19:52:42;;;;;;;1.67;0.68;;;22.60;65.00;;;;;;5191194;22;20091;-69
2023/04/13 19:55:06;;;;;;;1.85;0.43;;;22.60;65.20;;;;;;5224806;22;20354;-68
2023/04/13 19:57:29;;;;;;;1.30;0.40;;;22.60;65.00;;;;;;5222419;22;20508;-67
2023/04/13 19:59:51;;;;;;;0.65;0.50;;;22.60;65.00;;;;;;5193815;22;20565;-71
2023/04/13 20:02:14;;;;;;;1.38;0.50;;;22.60;65.00;;;;;;5224085;22;20015;-72
2023/04/13 20:04:36;;;;;;;0.93;0.40;;;22.60;65.00;;;;;;5222487;22;20018;-72
2023/04/13 20:07:00;;;;;;;0.85;0.50;;;22.60;65.50;;;;;;5224601;22;20046;-72
2023/04/13 20:09:22;;;;;;;2.00;0.57;;;22.50;65.00;;;;;;5223394;22;20015;-73
2023/04/13 20:11:45;;;;;;;0.90;0.50;;;22.50;64.90;;;;;;5223411;22;20098;-74
2023/04/13 20:14:08;;;;;;;1.98;0.57;;;22.60;65.00;;;;;;5222723;22;20011;-66
2023/04/13 20:16:31;;;;;;;0.50;0.50;;;22.50;65.00;;;;;;5223453;22;20015;-66
2023/04/13 20:18:56;;;;;;;1.80;0.68;;;22.50;64.90;;;;;;5192344;22;20046;-69
2023/04/13 20:21:18;;;;;;;1.85;0.55;;;22.50;64.90;;;;;;5224317;22;20007;-68
2023/04/13 20:23:41;;;;;;;0.88;0.40;;;22.50;64.70;;;;;;5191428;22;20023;-67
2023/04/13 20:26:04;;;;;;;1.23;0.30;;;22.50;64.70;;;;;;5193086;22;20655;-66
2023/04/13 20:28:26;;;;;;;0.47;0.43;;;22.50;64.70;;;;;;5224736;22;20320;-72
2023/04/13 20:30:49;;;;;;;2.47;0.57;;;22.50;64.70;;;;;;5222012;22;20027;-72
2023/04/13 20:33:11;;;;;;;2.55;1.00;;;22.40;64.70;;;;;;5224035;22;20015;-72
2023/04/13 20:35:34;;;;;;;0.77;0.50;;;22.40;64.70;;;;;;5224208;22;20081;-72
2023/04/13 20:38:00;;;;;;;2.30;0.50;;;22.40;64.60;;;;;;5222666;22;20015;-73
2023/04/13 20:40:23;;;;;;;1.65;0.47;;;22.40;64.70;;;;;;5223103;22;20018;-71
2023/04/13 20:42:46;;;;;;;1.20;0.40;;;22.40;64.60;;;;;;5223067;22;20462;-68
2023/04/13 20:45:11;;;;;;;1.88;0.65;;;22.30;64.60;;;;;;5224099;22;20012;-68
2023/04/13 20:47:34;;;;;;;1.15;0.60;;;22.30;64.60;;;;;;5223539;22;20039;-68
2023/04/13 20:49:58;;;;;;;1.17;0.50;;;22.30;64.60;;;;;;5223390;22;20019;-67
2023/04/13 20:52:24;;;;;;;0.75;0.52;;;22.30;64.60;;;;;;5178435;22;20377;-65
2023/04/13 20:54:47;;;;;;;1.27;0.50;;;22.30;64.60;;;;;;5213775;22;20592;-67
2023/04/13 20:57:10;;;;;;;1.88;0.70;;;22.30;64.60;;;;;;5225431;22;20015;-73
2023/04/13 20:59:33;;;;;;;1.23;0.60;;;22.20;64.60;;;;;;5223692;22;20011;-74
2023/04/13 21:01:56;;;;;;;0.93;0.55;;;22.20;64.60;;;;;;5222634;22;20458;-75
2023/04/13 21:04:18;;;;;;;1.98;0.70;;;22.20;64.60;;;;;;5221042;22;20127;-74
2023/04/13 21:06:41;;;;;;;0.45;0.40;;;22.20;64.80;;;;;;5223247;22;20019;-73
2023/04/13 21:09:04;;;;;;;0.90;0.55;;;22.20;65.00;;;;;;5223286;22;20012;-75
2023/04/13 21:11:27;;;;;;;0.95;0.82;;;22.20;65.00;;;;;;5225073;22;20015;-75
2023/04/13 21:13:49;;;;;;;2.63;0.63;;;22.20;65.00;;;;;;5224147;22;20446;-75
2023/04/13 21:16:18;;;;;;;1.20;0.75;;;22.20;65.10;;;;;;5193579;22;20047;-76
2023/04/13 21:18:40;;;;;;;1.73;0.65;;;22.10;65.30;;;;;;5226662;22;20011;-77
2023/04/13 21:21:04;;;;;;;2.28;0.60;;;22.10;65.20;;;;;;5225935;22;20015;-76
2023/04/13 21:23:27;;;;;;;2.28;0.70;;;22.10;65.20;;;;;;5225877;22;20008;-76
2023/04/13 21:25:49;;;;;;;1.75;0.45;;;22.10;65.20;;;;;;5226500;22;20015;-67
2023/04/13 21:28:12;;;;;;;0.82;0.40;;;22.10;65.30;;;;;;5225461;22;20540;-68
2023/04/13 21:30:34;;;;;;;1.92;0.75;;;22.10;65.50;;;;;;5191055;22;20401;-70
2023/04/13 21:32:56;;;;;;;2.75;0.90;;;22.10;65.60;;;;;;5223563;22;20011;-69
2023/04/13 21:35:19;;;;;;;10.88;1.40;;;22.10;66.10;;;;;;5224395;22;20019;-69
2023/04/13 21:37:41;;;;;;;3.28;1.00;;;22.10;66.10;;;;;;5223175;22;20026;-67
2023/04/13 21:40:04;;;;;;;3.30;1.00;;;22.10;66.00;;;;;;5193192;22;20132;-69
2023/04/13 21:42:27;;;;;;;2.70;0.75;;;22.00;66.10;;;;;;5189589;22;20385;-68
2023/04/13 21:44:49;;;;;;;2.95;0.70;;;22.00;66.30;;;;;;5221300;22;20015;-68
2023/04/13 21:47:12;;;;;;;2.15;0.88;;;22.00;66.10;;;;;;5224349;22;20342;-68
2023/04/13 21:49:34;;;;;;;1.95;0.80;;;22.00;66.20;;;;;;5193279;22;20079;-68
2023/04/13 21:51:57;;;;;;;2.38;1.08;;;22.00;66.30;;;;;;5224114;22;20011;-68
2023/04/13 21:54:19;;;;;;;3.63;1.10;;;22.00;66.30;;;;;;5224300;22;20022;-71
2023/04/13 21:56:42;;;;;;;3.20;0.60;;;22.00;67.00;;;;;;5224342;22;20064;-69
2023/04/13 21:59:04;;;;;;;1.88;0.70;;;22.00;67.00;;;;;;5222322;22;20349;-69
2023/04/13 22:01:27;;;;;;;1.55;0.85;;;22.00;66.80;;;;;;5192232;22;20015;-70
2023/04/13 22:03:51;;;;;;;5.85;1.10;;;22.00;66.90;;;;;;5224227;22;20440;-67
2023/04/13 22:06:14;;;;;;;1.83;0.70;;;22.00;66.90;;;;;;5192808;22;20015;-68
2023/04/13 22:08:37;;;;;;;7.10;1.00;;;22.00;67.00;;;;;;5223267;22;20393;-67
2023/04/13 22:11:00;;;;;;;1.55;0.60;;;22.00;66.80;;;;;;5221569;22;20279;-68
2023/04/13 22:13:22;;;;;;;2.55;0.82;;;22.00;67.00;;;;;;5192488;22;20092;-68
2023/04/13 22:15:44;;;;;;;2.15;0.80;;;22.00;67.10;;;;;;5223783;22;20069;-75
2023/04/13 22:18:07;;;;;;;12.35;1.60;;;22.00;67.40;;;;;;5224676;22;20018;-75
2023/04/13 22:20:29;;;;;;;0.80;0.60;;;22.00;67.40;;;;;;5223708;22;20077;-74
2023/04/13 22:22:52;;;;;;;4.25;0.93;;;22.00;67.40;;;;;;5218870;22;20015;-77
2023/04/13 22:25:14;;;;;;;2.83;0.85;;;22.00;67.50;;;;;;5213475;22;20061;-76
2023/04/13 22:27:37;;;;;;;1.02;0.70;;;22.00;67.50;;;;;;5221838;22;20015;-74
2023/04/13 22:29:59;;;;;;;5.80;1.08;;;22.00;68.20;;;;;;5219752;22;20023;-76
2023/04/13 22:32:21;;;;;;;3.70;0.90;;;22.00;67.60;;;;;;5218341;22;20022;-75
2023/04/13 22:34:44;;;;;;;8.07;1.40;;;22.00;67.90;;;;;;5223587;22;20388;-76
2023/04/13 22:37:06;;;;;;;6.88;1.10;;;22.10;67.90;;;;;;5220264;22;20488;-75
2023/04/13 22:39:29;;;;;;;7.25;1.98;;;22.10;67.90;;;;;;5216834;22;20049;-74
2023/04/13 22:41:52;;;;;;;10.93;1.70;;;22.10;68.00;;;;;;5213575;22;20068;-71
2023/04/13 22:44:15;;;;;;;6.60;1.35;;;22.10;67.90;;;;;;5220786;22;20255;-75
2023/04/13 22:46:37;;;;;;;5.70;0.90;;;22.10;67.80;;;;;;5225008;22;20077;-74
2023/04/13 22:48:59;;;;;;;2.15;0.82;;;22.10;67.90;;;;;;5225607;22;20395;-73
2023/04/13 22:51:22;;;;;;;4.38;1.20;;;22.20;67.80;;;;;;5224594;22;20023;-76
2023/04/13 22:53:46;;;;;;;1.92;0.95;;;22.30;67.70;;;;;;5226001;22;20363;-72
2023/04/13 22:56:08;;;;;;;3.17;0.85;;;22.30;67.50;;;;;;5223369;22;20007;-76
2023/04/13 22:58:31;;;;;;;2.58;1.10;;;22.40;67.30;;;;;;5194318;22;20019;-75
2023/04/13 23:00:53;;;;;;;1.15;0.77;;;22.40;67.30;;;;;;5225124;22;20037;-76
2023/04/13 23:03:15;;;;;;;2.60;0.73;;;22.40;67.20;;;;;;5223451;22;20019;-77
2023/04/13 23:05:38;;;;;;;1.83;0.60;;;22.50;67.20;;;;;;5198347;22;20020;-74
2023/04/13 23:08:01;;;;;;;3.83;1.15;;;22.50;67.10;;;;;;5198727;22;20039;-75
2023/04/13 23:10:24;;;;;;;1.77;0.75;;;22.50;67.00;;;;;;5199650;22;20058;-77
2023/04/13 23:12:46;;;;;;;1.48;0.50;;;22.50;66.90;;;;;;5196662;22;20015;-75
2023/04/13 23:15:09;;;;;;;5.43;0.90;;;22.60;67.00;;;;;;5197142;22;20016;-76
2023/04/13 23:17:32;;;;;;;1.02;0.65;;;22.60;67.00;;;;;;5188711;22;20069;-74
2023/04/13 23:19:55;;;;;;;2.60;0.68;;;22.60;66.90;;;;;;5200637;22;20016;-74
2023/04/13 23:22:17;;;;;;;2.30;0.52;;;22.60;67.00;;;;;;5198556;22;20447;-73
2023/04/13 23:24:39;;;;;;;0.65;0.45;;;22.60;66.80;;;;;;5197858;22;20022;-75
2023/04/13 23:27:02;;;;;;;1.38;0.60;;;22.70;66.70;;;;;;5199305;22;20024;-74
2023/04/13 23:29:24;;;;;;;3.65;0.88;;;22.70;66.70;;;;;;5197287;22;20118;-78
2023/04/13 23:31:47;;;;;;;1.88;0.52;;;22.70;66.60;;;;;;5199890;22;20077;-75
2023/04/13 23:34:10;;;;;;;1.75;0.70;;;22.70;66.50;;;;;;5200115;22;20462;-72
2023/04/13 23:36:32;;;;;;;1.65;0.50;;;22.80;66.50;;;;;;5190681;22;20016;-73
2023/04/13 23:38:55;;;;;;;1.70;0.47;;;22.80;66.40;;;;;;5200815;22;20019;-79
2023/04/13 23:41:17;;;;;;;6.15;0.60;;;22.80;66.30;;;;;;5171025;22;20009;-75
2023/04/13 23:43:40;;;;;;;6.22;0.60;;;22.90;66.30;;;;;;5207311;22;20022;-75
2023/04/13 23:46:03;;;;;;;5.05;0.70;;;22.90;66.20;;;;;;5218594;22;20023;-75
2023/04/13 23:48:26;;;;;;;5.97;0.70;;;22.90;66.20;;;;;;5191054;22;20095;-74
2023/04/13 23:50:49;;;;;;;8.38;1.05;;;22.90;66.50;;;;;;5218792;22;20065;-79
2023/04/13 23:53:12;;;;;;;4.47;1.10;;;22.90;66.30;;;;;;5206857;22;20415;-81
2023/04/13 23:55:34;;;;;;;1.83;0.75;;;22.90;67.10;;;;;;5199015;22;20012;-79
2023/04/13 23:57:57;;;;;;;1.67;0.43;;;22.90;66.80;;;;;;5198310;22;20018;-76
